createdAt,value
2023-03-03T00:01:42.010Z,48.00
2023-03-03T00:04:08.966Z,47.90
2023-03-03T00:06:35.578Z,48.00
2023-03-03T00:09:02.196Z,48.00
2023-03-03T00:11:28.820Z,47.90
2023-03-03T00:13:56.783Z,47.90
2023-03-03T00:16:30.987Z,47.90
2023-03-03T00:18:58.182Z,47.90
2023-03-03T00:21:29.002Z,48.00
2023-03-03T00:24:14.931Z,47.40
2023-03-03T00:26:44.969Z,47.90
2023-03-03T00:29:40.225Z,47.90
2023-03-03T00:32:15.861Z,47.90
2023-03-03T00:34:43.545Z,47.90
2023-03-03T00:37:35.282Z,47.90
2023-03-03T00:40:23.976Z,47.90
2023-03-03T00:42:55.536Z,47.90
2023-03-03T00:45:43.311Z,47.80
2023-03-03T00:48:31.310Z,47.80
2023-03-03T00:51:00.127Z,47.80
2023-03-03T00:53:29.494Z,47.30
2023-03-03T00:55:57.003Z,47.80
2023-03-03T00:58:25.653Z,47.80
2023-03-03T01:00:54.556Z,47.80
2023-03-03T01:03:24.682Z,47.80
2023-03-03T01:05:53.172Z,47.80
2023-03-03T01:08:22.096Z,47.80
2023-03-03T01:10:54.560Z,47.80
2023-03-03T01:13:23.627Z,47.80
2023-03-03T01:15:50.898Z,47.80
2023-03-03T01:18:17.578Z,47.80
2023-03-03T01:20:44.275Z,47.80
2023-03-03T01:23:10.895Z,47.80
2023-03-03T01:25:37.787Z,47.30
2023-03-03T01:28:04.737Z,47.80
2023-03-03T01:30:31.608Z,47.70
2023-03-03T01:32:58.634Z,47.80
2023-03-03T01:35:25.537Z,47.70
2023-03-03T01:37:52.424Z,47.70
2023-03-03T01:40:25.574Z,48.30
2023-03-03T01:42:55.192Z,47.70
2023-03-03T01:45:30.688Z,47.10
2023-03-03T01:48:10.567Z,47.70
2023-03-03T01:50:51.188Z,47.70
2023-03-03T01:53:40.399Z,47.70
2023-03-03T01:56:08.706Z,47.70
2023-03-03T01:58:39.784Z,47.70
2023-03-03T02:01:12.317Z,47.70
2023-03-03T02:03:39.311Z,47.70
2023-03-03T02:06:16.364Z,47.70
2023-03-03T02:08:51.869Z,47.60
2023-03-03T02:11:21.094Z,47.60
2023-03-03T02:13:47.870Z,47.60
2023-03-03T02:16:15.014Z,47.70
2023-03-03T02:18:41.665Z,47.60
2023-03-03T02:21:23.191Z,47.60
2023-03-03T02:23:55.755Z,48.20
2023-03-03T02:26:24.895Z,47.60
2023-03-03T02:28:52.467Z,47.60
2023-03-03T02:31:24.557Z,47.60
2023-03-03T02:33:53.199Z,47.60
2023-03-03T02:36:24.983Z,47.60
2023-03-03T02:38:56.240Z,47.60
2023-03-03T02:41:47.992Z,47.60
2023-03-03T02:44:17.085Z,47.60
2023-03-03T02:46:46.074Z,47.60
2023-03-03T02:49:16.109Z,47.60
2023-03-03T02:51:43.910Z,47.60
2023-03-03T02:54:12.082Z,47.60
2023-03-03T02:56:39.172Z,47.60
2023-03-03T02:59:06.298Z,47.50
2023-03-03T03:01:36.929Z,47.60
2023-03-03T03:04:09.538Z,47.50
2023-03-03T03:06:36.414Z,47.60
2023-03-03T03:09:04.364Z,47.50
2023-03-03T03:11:31.118Z,47.60
2023-03-03T03:13:57.785Z,47.00
2023-03-03T03:16:24.498Z,47.50
2023-03-03T03:18:51.589Z,47.60
2023-03-03T03:21:18.537Z,47.50
2023-03-03T03:23:45.350Z,47.60
2023-03-03T03:26:12.604Z,47.60
2023-03-03T03:28:39.424Z,47.60
2023-03-03T03:31:07.278Z,47.50
2023-03-03T03:33:34.755Z,47.60
2023-03-03T03:36:02.083Z,47.60
2023-03-03T03:38:29.885Z,47.60
2023-03-03T03:40:57.131Z,47.50
2023-03-03T03:43:23.888Z,47.50
2023-03-03T03:45:50.661Z,47.50
2023-03-03T03:48:19.528Z,47.50
2023-03-03T03:50:48.494Z,47.50
2023-03-03T03:53:16.621Z,47.50
2023-03-03T03:55:44.021Z,47.50
2023-03-03T03:58:15.262Z,47.50
2023-03-03T04:00:42.756Z,47.50
2023-03-03T04:03:10.637Z,47.50
2023-03-03T04:05:37.890Z,47.50
2023-03-03T04:08:04.626Z,47.50
2023-03-03T04:10:31.315Z,47.50
2023-03-03T04:12:58.857Z,47.50
2023-03-03T04:15:25.625Z,47.50
2023-03-03T04:17:52.245Z,47.40
2023-03-03T04:20:18.992Z,47.50
2023-03-03T04:22:45.597Z,47.50
2023-03-03T04:25:16.923Z,47.60
2023-03-03T04:27:44.317Z,47.50
2023-03-03T04:30:12.379Z,47.50
2023-03-03T04:32:39.098Z,47.50
2023-03-03T04:35:10.517Z,47.50
2023-03-03T04:37:37.576Z,47.40
2023-03-03T04:40:05.757Z,47.40
2023-03-03T04:42:32.343Z,47.40
2023-03-03T04:44:58.926Z,46.80
2023-03-03T04:47:25.599Z,47.30
2023-03-03T04:49:52.251Z,47.20
2023-03-03T04:52:19.004Z,47.20
2023-03-03T04:54:45.789Z,46.50
2023-03-03T04:57:12.464Z,47.00
2023-03-03T04:59:39.067Z,47.00
2023-03-03T05:02:05.782Z,47.00
2023-03-03T05:04:33.351Z,47.00
2023-03-03T05:07:00.045Z,47.00
2023-03-03T05:09:26.709Z,47.30
2023-03-03T05:11:53.758Z,37.40
2023-03-03T05:14:20.651Z,37.80
2023-03-03T05:16:47.538Z,38.20
2023-03-03T05:19:14.335Z,38.70
2023-03-03T05:21:42.471Z,40.60
2023-03-03T05:24:11.257Z,40.90
2023-03-03T05:26:38.049Z,40.70
2023-03-03T05:29:05.326Z,39.80
2023-03-03T05:31:32.120Z,40.10
2023-03-03T05:33:58.813Z,40.80
2023-03-03T05:36:25.542Z,40.20
2023-03-03T05:38:52.738Z,41.20
2023-03-03T05:41:19.382Z,41.40
2023-03-03T05:43:45.986Z,41.50
2023-03-03T05:46:12.995Z,41.90
2023-03-03T05:48:39.759Z,41.90
2023-03-03T05:51:06.398Z,42.20
2023-03-03T05:53:33.155Z,42.40
2023-03-03T05:55:59.828Z,42.60
2023-03-03T05:58:26.827Z,42.70
2023-03-03T06:00:53.470Z,42.90
2023-03-03T06:03:20.195Z,43.10
2023-03-03T06:05:46.878Z,43.20
2023-03-03T06:08:13.611Z,43.30
2023-03-03T06:10:40.362Z,43.30
2023-03-03T06:13:07.019Z,43.40
2023-03-03T06:15:33.881Z,43.50
2023-03-03T06:18:00.493Z,43.60
2023-03-03T06:20:27.291Z,44.30
2023-03-03T06:22:53.938Z,43.70
2023-03-03T06:25:20.743Z,43.80
2023-03-03T06:27:47.377Z,43.80
2023-03-03T06:30:14.431Z,43.90
2023-03-03T06:32:41.400Z,44.00
2023-03-03T06:35:08.292Z,44.10
2023-03-03T06:37:34.999Z,44.40
2023-03-03T06:40:01.654Z,45.00
2023-03-03T06:42:28.299Z,45.60
2023-03-03T06:44:54.935Z,45.20
2023-03-03T06:47:21.773Z,46.10
2023-03-03T06:49:48.387Z,46.10
2023-03-03T06:52:22.512Z,46.00
2023-03-03T06:54:50.680Z,46.30
2023-03-03T06:57:25.124Z,46.60
2023-03-03T06:59:54.854Z,46.60
2023-03-03T07:02:22.059Z,46.90
2023-03-03T07:04:48.795Z,46.70
2023-03-03T07:07:25.995Z,47.20
2023-03-03T07:09:55.393Z,47.30
2023-03-03T07:12:31.161Z,47.30
2023-03-03T07:15:23.629Z,47.30
2023-03-03T07:17:54.894Z,47.40
2023-03-03T07:20:24.154Z,47.40
2023-03-03T07:22:51.952Z,46.90
2023-03-03T07:25:22.529Z,47.40
2023-03-03T07:27:49.236Z,47.40
2023-03-03T07:30:27.143Z,47.40
2023-03-03T07:32:57.331Z,47.60
2023-03-03T07:35:43.033Z,47.70
2023-03-03T07:38:29.620Z,47.50
2023-03-03T07:40:59.417Z,47.60
2023-03-03T07:43:37.988Z,47.70
2023-03-03T07:46:10.714Z,47.60
2023-03-03T07:48:40.895Z,47.60
2023-03-03T07:51:28.901Z,47.60
2023-03-03T07:54:35.143Z,47.10
2023-03-03T07:57:22.400Z,47.60
2023-03-03T07:59:55.115Z,47.60
2023-03-03T08:02:42.733Z,47.60
2023-03-03T08:05:40.331Z,47.60
2023-03-03T08:08:09.733Z,47.60
2023-03-03T08:10:47.746Z,47.70
2023-03-03T08:13:35.499Z,47.60
2023-03-03T08:16:10.991Z,47.60
2023-03-03T08:18:48.772Z,47.60
2023-03-03T08:21:23.885Z,47.60
2023-03-03T08:23:53.233Z,47.60
2023-03-03T08:26:23.461Z,47.70
2023-03-03T08:28:50.659Z,47.70
2023-03-03T08:31:31.170Z,47.70
2023-03-03T08:34:06.862Z,47.80
2023-03-03T08:36:34.856Z,47.70
2023-03-03T08:39:02.420Z,47.70
2023-03-03T08:41:29.191Z,47.80
2023-03-03T08:43:55.824Z,47.70
2023-03-03T08:46:22.493Z,47.80
2023-03-03T08:48:49.732Z,47.80
2023-03-03T08:51:16.432Z,47.80
2023-03-03T08:53:43.058Z,47.80
2023-03-03T08:56:10.417Z,47.80
2023-03-03T08:58:37.106Z,47.80
2023-03-03T09:01:04.891Z,47.80
2023-03-03T09:03:31.717Z,47.80
2023-03-03T09:05:58.508Z,47.80
2023-03-03T09:08:25.161Z,47.90
2023-03-03T09:10:51.796Z,48.10
2023-03-03T09:13:20.317Z,48.10
2023-03-03T09:15:48.859Z,48.30
2023-03-03T09:18:22.591Z,48.30
2023-03-03T09:20:54.029Z,48.40
2023-03-03T09:23:23.872Z,48.40
2023-03-03T09:25:51.571Z,48.50
2023-03-03T09:28:27.387Z,48.50
2023-03-03T09:30:57.074Z,48.60
2023-03-03T09:33:40.954Z,48.70
2023-03-03T09:36:36.428Z,48.80
2023-03-03T09:39:23.866Z,48.80
2023-03-03T09:42:09.082Z,48.80
2023-03-03T09:45:13.050Z,48.40
2023-03-03T09:47:46.678Z,48.90
2023-03-03T09:51:03.783Z,48.90
2023-03-03T09:53:49.141Z,49.00
2023-03-03T09:56:24.570Z,49.10
2023-03-03T09:59:14.056Z,49.00
2023-03-03T10:01:53.789Z,49.10
2023-03-03T10:04:29.128Z,49.00
2023-03-03T10:07:01.349Z,49.00
2023-03-03T10:09:46.373Z,49.00
2023-03-03T10:12:13.406Z,49.00
2023-03-03T10:15:16.160Z,48.50
2023-03-03T10:18:09.803Z,49.10
2023-03-03T10:21:01.666Z,49.00
2023-03-03T10:23:52.008Z,49.00
2023-03-03T10:26:25.080Z,48.50
2023-03-03T10:29:22.720Z,49.10
2023-03-03T10:32:16.958Z,49.10
2023-03-03T10:35:05.112Z,49.10
2023-03-03T10:38:05.848Z,49.00
2023-03-03T10:40:38.164Z,49.00
2023-03-03T10:43:31.091Z,49.10
2023-03-03T10:46:32.108Z,49.10
2023-03-03T10:49:01.359Z,49.10
2023-03-03T10:52:01.319Z,49.10
2023-03-03T10:54:45.861Z,49.10
2023-03-03T10:57:58.117Z,49.20
2023-03-03T11:00:31.412Z,49.10
2023-03-03T11:03:35.157Z,49.20
2023-03-03T11:06:09.017Z,49.20
2023-03-03T11:08:43.016Z,49.20
2023-03-03T11:11:41.000Z,49.20
2023-03-03T11:14:25.523Z,48.90
2023-03-03T11:17:13.645Z,49.40
2023-03-03T11:19:40.255Z,49.40
2023-03-03T11:22:25.025Z,49.60
2023-03-03T11:25:16.837Z,49.50
2023-03-03T11:28:12.215Z,49.60
2023-03-03T11:31:13.451Z,49.60
2023-03-03T11:34:24.345Z,49.60
2023-03-03T11:36:57.664Z,49.60
2023-03-03T11:39:28.413Z,49.60
2023-03-03T11:42:24.830Z,49.60
2023-03-03T11:44:53.851Z,49.60
2023-03-03T11:47:45.781Z,49.70
2023-03-03T11:50:53.515Z,49.60
2023-03-03T11:53:40.868Z,49.70
2023-03-03T11:56:26.155Z,49.70
2023-03-03T11:59:18.518Z,49.70
2023-03-03T12:01:58.934Z,49.70
2023-03-03T12:04:36.778Z,49.70
2023-03-03T12:07:21.724Z,49.70
2023-03-03T12:10:26.200Z,49.80
2023-03-03T12:13:17.983Z,49.80
2023-03-03T12:16:00.154Z,49.80
2023-03-03T12:19:04.497Z,49.90
2023-03-03T12:22:00.675Z,49.90
2023-03-03T12:25:04.665Z,50.00
2023-03-03T12:28:00.148Z,49.90
2023-03-03T12:30:45.282Z,49.90
2023-03-03T12:33:16.575Z,50.00
2023-03-03T12:36:00.871Z,50.00
2023-03-03T12:38:52.988Z,50.10
2023-03-03T12:41:32.407Z,50.00
2023-03-03T12:44:05.662Z,50.00
2023-03-03T12:46:46.185Z,50.20
2023-03-03T12:49:13.296Z,50.20
2023-03-03T12:52:13.719Z,50.00
2023-03-03T12:54:48.656Z,50.00
2023-03-03T12:57:49.537Z,50.00
2023-03-03T13:00:28.493Z,49.90
2023-03-03T13:03:16.575Z,49.70
2023-03-03T13:06:14.638Z,49.70
2023-03-03T13:09:02.532Z,49.50
2023-03-03T13:11:46.058Z,49.40
2023-03-03T13:14:18.438Z,49.40
2023-03-03T13:17:00.303Z,49.40
2023-03-03T13:19:41.860Z,49.40
2023-03-03T13:22:17.225Z,49.30
2023-03-03T13:25:04.126Z,49.20
2023-03-03T13:27:43.031Z,49.20
2023-03-03T13:30:22.790Z,49.20
2023-03-03T13:32:55.416Z,49.20
2023-03-03T13:35:48.320Z,48.80
2023-03-03T13:38:22.168Z,49.30
2023-03-03T13:40:59.634Z,49.30
2023-03-03T13:43:39.382Z,49.40
2023-03-03T13:46:27.029Z,49.30
2023-03-03T13:49:11.264Z,49.40
2023-03-03T13:52:08.091Z,49.50
2023-03-03T13:55:10.538Z,49.40
2023-03-03T13:57:48.573Z,49.50
2023-03-03T14:00:17.771Z,49.60
2023-03-03T14:03:07.094Z,49.70
2023-03-03T14:05:50.990Z,49.70
2023-03-03T14:08:36.127Z,49.70
2023-03-03T14:11:11.806Z,49.60
2023-03-03T14:14:03.379Z,49.70
2023-03-03T14:16:49.667Z,49.90
2023-03-03T14:19:32.721Z,49.90
2023-03-03T14:22:23.363Z,49.70
2023-03-03T14:25:08.977Z,49.60
2023-03-03T14:27:46.733Z,50.00
2023-03-03T14:30:22.122Z,50.10
2023-03-03T14:33:09.163Z,50.20
2023-03-03T14:35:56.492Z,49.80
2023-03-03T14:38:44.836Z,50.40
2023-03-03T14:41:11.720Z,50.40
2023-03-03T14:43:41.351Z,50.60
2023-03-03T14:46:30.352Z,50.70
2023-03-03T14:49:00.056Z,50.70
2023-03-03T14:51:45.226Z,50.70
2023-03-03T14:54:26.937Z,50.80
2023-03-03T14:57:15.112Z,50.80
2023-03-03T15:00:00.289Z,50.90
2023-03-03T15:02:37.817Z,50.80
2023-03-03T15:05:27.412Z,50.10
2023-03-03T15:08:04.588Z,50.70
2023-03-03T15:10:42.566Z,50.70
2023-03-03T15:13:33.997Z,50.70
2023-03-03T15:16:02.494Z,50.60
2023-03-03T15:18:34.818Z,50.50
2023-03-03T15:21:18.654Z,50.40
2023-03-03T15:24:22.287Z,50.40
2023-03-03T15:27:18.661Z,50.40
2023-03-03T15:30:02.648Z,50.40
2023-03-03T15:32:53.117Z,50.50
2023-03-03T15:35:30.916Z,50.60
2023-03-03T15:38:19.810Z,50.50
2023-03-03T15:41:08.609Z,50.40
2023-03-03T15:43:57.276Z,40.50
2023-03-03T15:46:50.228Z,40.60
2023-03-03T15:49:25.711Z,43.30
2023-03-03T15:52:22.436Z,46.00
2023-03-03T15:55:07.611Z,46.40
2023-03-03T15:58:11.959Z,46.10
2023-03-03T16:01:12.003Z,46.30
2023-03-03T16:03:46.427Z,46.50
2023-03-03T16:06:24.031Z,46.50
2023-03-03T16:09:42.964Z,46.80
2023-03-03T16:12:43.591Z,46.90
2023-03-03T16:15:18.964Z,46.60
2023-03-03T16:18:29.550Z,47.30
2023-03-03T16:21:21.449Z,47.50
2023-03-03T16:23:51.187Z,47.70
2023-03-03T16:26:23.726Z,47.70
2023-03-03T16:29:19.644Z,47.70
2023-03-03T16:32:02.553Z,47.80
2023-03-03T16:34:55.498Z,47.80
2023-03-03T16:37:32.569Z,47.80
2023-03-03T16:40:11.210Z,48.30
2023-03-03T16:42:37.811Z,48.50
2023-03-03T16:45:33.316Z,48.50
2023-03-03T16:48:12.991Z,48.40
2023-03-03T16:50:58.477Z,48.50
2023-03-03T16:53:56.967Z,48.50
2023-03-03T16:56:31.765Z,48.30
2023-03-03T16:59:07.642Z,48.30
2023-03-03T17:01:49.598Z,48.40
2023-03-03T17:04:50.718Z,47.70
2023-03-03T17:07:35.795Z,48.10
2023-03-03T17:10:15.114Z,48.10
2023-03-03T17:13:09.528Z,47.90
2023-03-03T17:15:54.422Z,48.00
2023-03-03T17:18:51.122Z,48.10
2023-03-03T17:21:34.538Z,47.90
2023-03-03T17:24:08.802Z,48.00
2023-03-03T17:26:44.250Z,48.30
2023-03-03T17:29:39.046Z,48.30
2023-03-03T17:32:31.344Z,48.30
2023-03-03T17:35:12.409Z,48.10
2023-03-03T17:37:49.758Z,48.60
2023-03-03T17:40:35.576Z,48.80
2023-03-03T17:43:18.216Z,48.90
2023-03-03T17:45:48.053Z,48.90
2023-03-03T17:48:31.054Z,48.90
2023-03-03T17:51:10.086Z,48.90
2023-03-03T17:53:57.991Z,49.00
2023-03-03T17:56:46.236Z,49.00
2023-03-03T17:59:42.813Z,49.20
2023-03-03T18:02:32.173Z,49.20
2023-03-03T18:05:39.028Z,49.00
2023-03-03T18:08:44.545Z,49.20
2023-03-03T18:11:31.613Z,49.30
2023-03-03T18:14:07.219Z,49.10
2023-03-03T18:17:14.348Z,48.90
2023-03-03T18:20:02.143Z,48.80
2023-03-03T18:22:41.006Z,48.60
2023-03-03T18:25:16.399Z,48.50
2023-03-03T18:27:44.936Z,48.50
2023-03-03T18:30:17.450Z,48.40
2023-03-03T18:32:46.801Z,48.40
2023-03-03T18:35:43.963Z,47.90
2023-03-03T18:38:16.724Z,48.40
2023-03-03T18:40:58.012Z,48.40
2023-03-03T18:43:40.057Z,48.40
2023-03-03T18:46:22.681Z,48.40
2023-03-03T18:48:55.230Z,48.40
2023-03-03T18:51:34.638Z,48.30
2023-03-03T18:54:12.554Z,48.30
2023-03-03T18:56:46.547Z,48.40
2023-03-03T18:59:34.465Z,48.40
2023-03-03T19:02:29.526Z,48.30
2023-03-03T19:05:04.910Z,48.30
2023-03-03T19:07:40.368Z,48.40
2023-03-03T19:10:22.083Z,48.40
2023-03-03T19:12:51.781Z,48.50
2023-03-03T19:15:35.290Z,48.30
2023-03-03T19:18:27.802Z,48.80
2023-03-03T19:20:56.463Z,48.80
2023-03-03T19:23:47.676Z,48.90
2023-03-03T19:26:29.286Z,48.90
2023-03-03T19:29:24.845Z,49.00
2023-03-03T19:32:30.625Z,49.00
2023-03-03T19:35:28.603Z,48.60
2023-03-03T19:38:10.598Z,49.00
2023-03-03T19:41:00.804Z,49.10
2023-03-03T19:43:35.300Z,49.50
2023-03-03T19:46:32.982Z,49.60
2023-03-03T19:49:42.045Z,49.60
2023-03-03T19:52:08.623Z,49.50
2023-03-03T19:55:03.639Z,49.40
2023-03-03T19:57:58.889Z,48.10
2023-03-03T20:00:43.754Z,49.50
2023-03-03T20:03:29.967Z,49.50
2023-03-03T20:06:01.446Z,49.50
2023-03-03T20:08:58.364Z,49.50
2023-03-03T20:11:56.548Z,49.50
2023-03-03T20:14:40.208Z,49.50
2023-03-03T20:18:11.161Z,49.50
2023-03-03T20:21:05.170Z,49.50
2023-03-03T20:24:04.340Z,48.80
2023-03-03T20:27:04.293Z,49.40
2023-03-03T20:29:43.152Z,49.30
2023-03-03T20:32:32.847Z,49.30
2023-03-03T20:35:44.564Z,49.20
2023-03-03T20:38:30.329Z,49.20
2023-03-03T20:41:05.470Z,49.10
2023-03-03T20:43:56.944Z,49.20
2023-03-03T20:46:47.992Z,49.10
2023-03-03T20:49:49.716Z,49.20
2023-03-03T20:52:33.818Z,49.10
2023-03-03T20:55:14.863Z,49.00
2023-03-03T20:57:54.787Z,49.00
2023-03-03T21:00:27.040Z,49.00
2023-03-03T21:03:09.629Z,48.90
2023-03-03T21:05:58.050Z,48.40
2023-03-03T21:08:46.518Z,48.80
2023-03-03T21:11:15.247Z,48.80
2023-03-03T21:13:44.146Z,48.80
2023-03-03T21:16:23.062Z,48.70
2023-03-03T21:19:00.185Z,48.70
2023-03-03T21:21:29.750Z,48.70
2023-03-03T21:23:56.928Z,48.70
2023-03-03T21:26:48.363Z,48.70
2023-03-03T21:29:22.597Z,48.70
2023-03-03T21:31:51.834Z,48.60
2023-03-03T21:34:26.780Z,48.50
2023-03-03T21:36:54.339Z,48.60
2023-03-03T21:39:33.349Z,48.60
2023-03-03T21:42:11.911Z,48.70
2023-03-03T21:44:46.427Z,48.40
2023-03-03T21:47:15.680Z,49.10
2023-03-03T21:49:44.094Z,49.00
2023-03-03T21:52:12.166Z,49.00
2023-03-03T21:54:39.284Z,48.50
2023-03-03T21:57:06.247Z,49.00
2023-03-03T21:59:32.912Z,49.00
2023-03-03T22:01:59.603Z,48.80
2023-03-03T22:04:26.354Z,48.80
2023-03-03T22:06:52.961Z,48.90
2023-03-03T22:09:20.117Z,48.70
2023-03-03T22:11:47.075Z,48.70
2023-03-03T22:14:14.013Z,48.80
2023-03-03T22:16:40.890Z,48.80
2023-03-03T22:19:11.146Z,48.80
2023-03-03T22:21:38.975Z,48.70
2023-03-03T22:24:06.536Z,48.70
2023-03-03T22:26:33.367Z,48.70
2023-03-03T22:29:00.126Z,48.70
2023-03-03T22:31:26.960Z,48.60
2023-03-03T22:33:53.690Z,48.60
2023-03-03T22:36:20.376Z,48.60
2023-03-03T22:38:47.607Z,48.60
2023-03-03T22:41:14.789Z,48.50
2023-03-03T22:43:42.032Z,48.60
2023-03-03T22:46:09.527Z,48.50
2023-03-03T22:48:36.933Z,48.40
2023-03-03T22:51:04.229Z,48.50
2023-03-03T22:53:30.839Z,48.50
2023-03-03T22:55:57.492Z,48.50
2023-03-03T22:58:26.013Z,48.40
2023-03-03T23:00:54.340Z,48.40
2023-03-03T23:03:21.352Z,48.40
2023-03-03T23:05:51.505Z,48.30
2023-03-03T23:08:20.138Z,48.30
2023-03-03T23:10:47.088Z,48.30
2023-03-03T23:13:14.116Z,48.30
2023-03-03T23:15:40.815Z,48.20
2023-03-03T23:18:07.805Z,48.30
2023-03-03T23:20:34.919Z,48.20
2023-03-03T23:23:01.860Z,48.20
2023-03-03T23:25:28.873Z,48.20
2023-03-03T23:27:56.428Z,48.20
2023-03-03T23:30:24.186Z,48.00
2023-03-03T23:32:51.556Z,48.20
2023-03-03T23:35:18.717Z,48.00
2023-03-03T23:37:45.880Z,48.00
2023-03-03T23:40:14.706Z,48.10
2023-03-03T23:42:41.401Z,48.00
2023-03-03T23:45:09.443Z,48.00
2023-03-03T23:47:36.162Z,48.00
2023-03-03T23:50:02.947Z,48.10
2023-03-03T23:52:29.603Z,48.00
2023-03-03T23:54:56.251Z,48.00
2023-03-03T23:57:23.038Z,47.90
2023-03-03T23:59:49.864Z,48.00
